Terminal Aerodrome Forecast
Issued by NWS Cleveland, OH

Home | Current Version | Previous Version | Text Only | Print | Product List | Glossary On
Versions: 1 2 3 4 5 6 7 8 9 10 11 12 13 14 15 16 17 18 19 20 21 22 23 24 25 26 27
347
FTUS41 KCLE 272328
TAFTOL
TAF
KTOL 272328Z 2800/2824 09007KT P6SM OVC050
     FM280300 VRB03KT P6SM SCT050 BKN120
     FM280800 VRB02KT P6SM SCT025 BKN120
      TEMPO 2809/2813 3SM BR BKN025
     FM281500 15005KT 6SM -SHRA BR BKN050
      TEMPO 2816/2820 4SM -TSRA BR OVC035CB
     FM282000 20010KT P6SM VCSH BKN050
      TEMPO 2820/2824 -TSRA OVC035CB=

USA.gov is the U.S. government's official web portal to all federal, state and local government web resources and services.